createdAt,value
2023-02-18T00:01:59.154Z,7.30
2023-02-18T00:04:29.961Z,7.28
2023-02-18T00:07:00.976Z,7.24
2023-02-18T00:09:30.000Z,7.21
2023-02-18T00:12:00.663Z,7.17
2023-02-18T00:14:31.393Z,7.14
2023-02-18T00:17:02.381Z,7.10
2023-02-18T00:19:33.122Z,7.08
2023-02-18T00:22:03.819Z,7.07
2023-02-18T00:24:34.437Z,7.06
2023-02-18T00:27:05.315Z,7.03
2023-02-18T00:29:35.948Z,7.01
2023-02-18T00:32:06.757Z,7.00
2023-02-18T00:34:37.512Z,6.98
2023-02-18T00:37:08.174Z,6.96
2023-02-18T00:39:38.889Z,6.93
2023-02-18T00:42:09.558Z,6.91
2023-02-18T00:44:40.223Z,6.90
2023-02-18T00:47:11.298Z,6.88
2023-02-18T00:49:40.420Z,6.85
2023-02-18T00:52:11.083Z,6.83
2023-02-18T00:54:41.755Z,6.79
2023-02-18T00:57:12.401Z,6.79
2023-02-18T00:59:43.238Z,6.78
2023-02-18T01:02:13.944Z,6.77
2023-02-18T01:04:44.772Z,6.76
2023-02-18T01:07:13.990Z,6.76
2023-02-18T01:09:46.835Z,6.75
2023-02-18T01:12:17.821Z,6.75
2023-02-18T01:14:48.516Z,6.73
2023-02-18T01:17:19.187Z,6.74
2023-02-18T01:19:49.918Z,6.74
2023-02-18T01:22:20.473Z,6.75
2023-02-18T01:24:51.198Z,6.75
2023-02-18T01:27:21.818Z,6.76
2023-02-18T01:29:52.630Z,6.75
2023-02-18T01:32:22.148Z,6.74
2023-02-18T01:34:53.089Z,6.72
2023-02-18T01:37:23.804Z,6.70
2023-02-18T01:39:54.512Z,6.69
2023-02-18T01:42:27.325Z,6.68
2023-02-18T01:45:39.980Z,6.67
2023-02-18T01:48:13.821Z,6.68
2023-02-18T01:50:47.573Z,6.67
2023-02-18T01:53:21.788Z,6.67
2023-02-18T01:55:52.540Z,6.66
2023-02-18T01:58:24.148Z,6.65
2023-02-18T02:00:55.018Z,6.64
2023-02-18T02:03:25.745Z,6.61
2023-02-18T02:05:56.440Z,6.59
2023-02-18T02:08:27.884Z,6.58
2023-02-18T02:11:15.426Z,6.57
2023-02-18T02:14:01.834Z,6.56
2023-02-18T02:16:40.802Z,6.51
2023-02-18T02:19:30.522Z,6.47
2023-02-18T02:22:24.310Z,6.46
2023-02-18T02:25:13.581Z,6.45
2023-02-18T02:28:17.797Z,6.42
2023-02-18T02:31:14.287Z,6.39
2023-02-18T02:34:11.428Z,6.38
2023-02-18T02:36:50.420Z,6.35
2023-02-18T02:39:29.200Z,6.33
2023-02-18T02:42:10.086Z,6.30
2023-02-18T02:44:47.941Z,6.27
2023-02-18T02:47:27.430Z,6.25
2023-02-18T02:50:13.238Z,6.23
2023-02-18T02:52:50.010Z,6.21
2023-02-18T02:55:21.011Z,6.20
2023-02-18T02:57:53.860Z,6.18
2023-02-18T03:00:38.864Z,6.18
2023-02-18T03:03:31.879Z,6.18
2023-02-18T03:06:23.335Z,6.15
2023-02-18T03:09:03.109Z,6.13
2023-02-18T03:11:42.427Z,6.10
2023-02-18T03:14:19.244Z,6.08
2023-02-18T03:16:58.624Z,6.08
2023-02-18T03:19:32.950Z,6.07
2023-02-18T03:22:11.197Z,6.05
2023-02-18T03:24:45.966Z,6.04
2023-02-18T03:27:21.569Z,6.03
2023-02-18T03:29:57.845Z,6.03
2023-02-18T03:32:29.564Z,6.03
2023-02-18T03:35:06.062Z,6.03
2023-02-18T03:37:42.122Z,6.02
2023-02-18T03:40:13.970Z,6.00
2023-02-18T03:42:44.712Z,6.03
2023-02-18T03:45:15.322Z,6.03
2023-02-18T03:47:46.148Z,6.02
2023-02-18T03:50:17.204Z,5.99
2023-02-18T03:52:46.364Z,5.96
2023-02-18T03:55:17.149Z,5.93
2023-02-18T03:57:47.780Z,5.91
2023-02-18T04:00:19.599Z,5.88
2023-02-18T04:02:50.280Z,5.86
2023-02-18T04:05:21.066Z,5.83
2023-02-18T04:07:51.796Z,5.80
2023-02-18T04:10:22.443Z,5.77
2023-02-18T04:12:53.454Z,5.75
2023-02-18T04:15:24.088Z,5.71
2023-02-18T04:17:54.822Z,5.67
2023-02-18T04:20:25.503Z,5.64
2023-02-18T04:22:56.222Z,5.64
2023-02-18T04:25:27.042Z,5.64
2023-02-18T04:27:57.742Z,5.61
2023-02-18T04:30:28.427Z,5.60
2023-02-18T04:32:59.188Z,5.59
2023-02-18T04:35:29.914Z,5.60
2023-02-18T04:38:00.575Z,5.60
2023-02-18T04:40:31.283Z,5.62
2023-02-18T04:43:02.310Z,5.63
2023-02-18T04:45:33.080Z,5.63
2023-02-18T04:48:04.137Z,5.60
2023-02-18T04:50:34.818Z,5.58
2023-02-18T04:53:05.542Z,5.55
2023-02-18T04:55:36.149Z,5.52
2023-02-18T04:58:06.868Z,5.50
2023-02-18T05:00:37.517Z,5.49
2023-02-18T05:03:08.289Z,5.49
2023-02-18T05:05:39.419Z,5.48
2023-02-18T05:08:08.915Z,5.45
2023-02-18T05:10:40.505Z,5.43
2023-02-18T05:13:11.184Z,5.42
2023-02-18T05:15:42.206Z,5.41
2023-02-18T05:18:12.874Z,5.38
2023-02-18T05:20:43.612Z,5.36
2023-02-18T05:23:14.263Z,5.33
2023-02-18T05:25:44.898Z,5.33
2023-02-18T05:28:15.668Z,5.33
2023-02-18T05:30:46.427Z,5.32
2023-02-18T05:33:17.143Z,5.30
2023-02-18T05:35:48.065Z,5.29
2023-02-18T05:38:18.736Z,5.29
2023-02-18T05:40:49.519Z,5.31
2023-02-18T05:43:20.225Z,5.32
2023-02-18T05:45:50.890Z,5.33
2023-02-18T05:48:21.499Z,5.36
2023-02-18T05:50:54.150Z,5.38
2023-02-18T05:53:24.808Z,5.40
2023-02-18T05:55:55.450Z,5.42
2023-02-18T05:58:26.164Z,5.41
2023-02-18T06:00:56.799Z,5.40
2023-02-18T06:03:27.522Z,5.40
2023-02-18T06:05:58.795Z,5.38
2023-02-18T06:08:29.574Z,5.39
2023-02-18T06:11:00.294Z,5.39
2023-02-18T06:13:30.932Z,5.39
2023-02-18T06:16:01.993Z,5.37
2023-02-18T06:18:32.729Z,5.34
2023-02-18T06:21:06.241Z,5.34
2023-02-18T06:23:36.882Z,5.31
2023-02-18T06:26:08.064Z,5.28
2023-02-18T06:28:39.131Z,5.30
2023-02-18T06:31:10.043Z,5.29
2023-02-18T06:33:39.403Z,5.29
2023-02-18T06:36:13.452Z,5.30
2023-02-18T06:38:45.378Z,5.31
2023-02-18T06:41:16.605Z,5.33
2023-02-18T06:43:47.608Z,5.36
2023-02-18T06:46:18.389Z,5.39
2023-02-18T06:48:49.233Z,5.43
2023-02-18T06:51:19.844Z,5.47
2023-02-18T06:53:50.497Z,5.49
2023-02-18T06:56:22.074Z,5.50
2023-02-18T06:58:52.826Z,5.52
2023-02-18T07:01:23.448Z,5.58
2023-02-18T07:03:54.157Z,5.63
2023-02-18T07:06:24.959Z,5.72
2023-02-18T07:08:55.664Z,5.82
2023-02-18T07:11:26.350Z,5.92
2023-02-18T07:13:56.995Z,6.03
2023-02-18T07:16:27.762Z,6.11
2023-02-18T07:18:58.506Z,6.19
2023-02-18T07:21:29.380Z,6.26
2023-02-18T07:24:00.032Z,6.34
2023-02-18T07:26:30.730Z,6.44
2023-02-18T07:29:01.462Z,6.54
2023-02-18T07:31:32.220Z,6.61
2023-02-18T07:34:03.061Z,6.67
2023-02-18T07:36:33.716Z,6.76
2023-02-18T07:39:04.495Z,6.86
2023-02-18T07:41:35.439Z,6.95
2023-02-18T07:44:06.446Z,7.04
2023-02-18T07:46:39.325Z,7.15
2023-02-18T07:49:10.047Z,7.29
2023-02-18T07:51:40.702Z,7.41
2023-02-18T07:54:11.342Z,7.48
2023-02-18T07:56:42.038Z,7.57
2023-02-18T07:59:13.256Z,7.65
2023-02-18T08:01:45.271Z,7.72
2023-02-18T08:04:16.142Z,7.81
2023-02-18T08:06:49.537Z,7.83
2023-02-18T08:09:20.650Z,7.90
2023-02-18T08:11:51.317Z,7.92
2023-02-18T08:14:21.985Z,7.91
2023-02-18T08:16:52.748Z,7.92
2023-02-18T08:19:23.369Z,7.94
2023-02-18T08:21:54.037Z,7.99
2023-02-18T08:24:24.764Z,8.02
2023-02-18T08:27:00.796Z,8.07
2023-02-18T08:29:32.312Z,8.15
2023-02-18T08:32:03.150Z,8.23
2023-02-18T08:34:33.968Z,8.29
2023-02-18T08:37:04.868Z,8.42
2023-02-18T08:39:39.600Z,8.56
2023-02-18T08:42:10.580Z,8.73
2023-02-18T08:44:41.414Z,8.87
2023-02-18T08:48:16.969Z,8.97
2023-02-18T08:50:02.997Z,8.93
2023-02-18T08:52:33.684Z,8.85
2023-02-18T08:55:06.272Z,8.76
2023-02-18T08:57:36.940Z,8.65
2023-02-18T09:00:16.051Z,8.64
2023-02-18T09:02:46.743Z,8.67
2023-02-18T09:05:17.851Z,8.65
2023-02-18T09:07:48.464Z,8.70
2023-02-18T09:10:19.154Z,8.85
2023-02-18T09:12:49.991Z,8.98
2023-02-18T09:15:20.742Z,9.06
2023-02-18T09:17:51.834Z,9.20
2023-02-18T09:20:29.901Z,9.34
2023-02-18T09:23:00.726Z,9.39
2023-02-18T09:25:31.421Z,9.54
2023-02-18T09:28:02.169Z,9.62
2023-02-18T09:30:32.895Z,9.67
2023-02-18T09:33:03.677Z,9.66
2023-02-18T09:35:38.474Z,9.65
2023-02-18T09:38:10.252Z,9.70
2023-02-18T09:40:45.120Z,9.70
2023-02-18T09:43:23.692Z,9.72
2023-02-18T09:45:55.298Z,9.74
2023-02-18T09:48:31.498Z,9.73
2023-02-18T09:51:02.366Z,9.68
2023-02-18T09:53:33.089Z,9.71
2023-02-18T09:56:02.518Z,9.77
2023-02-18T09:58:35.039Z,9.76
2023-02-18T10:01:13.870Z,9.72
2023-02-18T10:03:44.898Z,9.70
2023-02-18T10:06:17.718Z,9.68
2023-02-18T10:08:50.941Z,9.65
2023-02-18T10:11:28.716Z,9.59
2023-02-18T10:14:00.894Z,9.53
2023-02-18T10:16:31.854Z,9.50
2023-02-18T10:19:15.002Z,9.49
2023-02-18T10:21:49.741Z,9.51
2023-02-18T10:24:28.849Z,9.57
2023-02-18T10:27:00.522Z,9.65
2023-02-18T10:29:31.276Z,9.73
2023-02-18T10:32:12.782Z,9.75
2023-02-18T10:34:47.520Z,9.72
2023-02-18T10:37:34.910Z,9.66
2023-02-18T10:40:18.553Z,9.63
2023-02-18T10:43:01.993Z,9.61
2023-02-18T10:45:43.682Z,9.59
2023-02-18T10:48:26.476Z,9.47
2023-02-18T10:50:59.995Z,9.40
2023-02-18T10:53:36.017Z,9.38
2023-02-18T10:56:08.442Z,9.31
2023-02-18T10:58:46.570Z,9.17
2023-02-18T11:01:21.568Z,9.10
2023-02-18T11:04:07.415Z,9.01
2023-02-18T11:06:43.942Z,8.85
2023-02-18T11:09:31.915Z,8.74
2023-02-18T11:12:13.617Z,8.67
2023-02-18T11:14:46.704Z,8.60
2023-02-18T11:17:27.708Z,8.54
2023-02-18T11:20:00.263Z,8.49
2023-02-18T11:22:34.079Z,8.41
2023-02-18T11:25:20.120Z,8.33
2023-02-18T11:27:55.022Z,8.23
2023-02-18T11:30:31.194Z,8.10
2023-02-18T11:33:06.730Z,8.04
2023-02-18T11:35:38.127Z,7.99
2023-02-18T11:38:35.746Z,7.93
2023-02-18T11:41:10.671Z,7.91
2023-02-18T11:43:46.544Z,7.94
2023-02-18T11:46:19.190Z,7.97
2023-02-18T11:48:50.820Z,8.02
2023-02-18T11:51:24.909Z,8.03
2023-02-18T11:54:04.428Z,8.00
2023-02-18T11:56:36.387Z,7.96
2023-02-18T11:59:10.608Z,7.94
2023-02-18T12:01:46.818Z,7.93
2023-02-18T12:04:19.074Z,7.98
2023-02-18T12:07:01.132Z,8.00
2023-02-18T12:09:36.616Z,8.02
2023-02-18T12:12:13.343Z,7.99
2023-02-18T12:14:45.236Z,7.94
2023-02-18T12:17:30.396Z,7.91
2023-02-18T12:20:15.959Z,7.82
2023-02-18T12:22:51.964Z,7.81
2023-02-18T12:25:34.727Z,7.75
2023-02-18T12:28:23.942Z,7.67
2023-02-18T12:31:13.448Z,7.64
2023-02-18T12:33:58.143Z,7.62
2023-02-18T12:36:38.664Z,7.62
2023-02-18T12:39:18.219Z,7.62
2023-02-18T12:42:12.517Z,7.59
2023-02-18T12:44:56.601Z,7.54
2023-02-18T12:47:42.810Z,7.56
2023-02-18T12:50:39.365Z,7.57
2023-02-18T12:53:32.685Z,7.56
2023-02-18T12:56:32.035Z,7.55
2023-02-18T12:59:12.947Z,7.55
2023-02-18T13:01:54.450Z,7.57
2023-02-18T13:04:36.834Z,7.61
2023-02-18T13:07:35.193Z,7.61
2023-02-18T13:10:34.435Z,7.61
2023-02-18T13:13:11.600Z,7.62
2023-02-18T13:15:47.367Z,7.58
2023-02-18T13:18:22.318Z,7.54
2023-02-18T13:20:56.263Z,7.48
2023-02-18T13:23:32.196Z,7.47
2023-02-18T13:26:05.757Z,7.43
2023-02-18T13:28:43.368Z,7.40
2023-02-18T13:31:25.451Z,7.42
2023-02-18T13:34:02.084Z,7.35
2023-02-18T13:36:46.972Z,7.32
2023-02-18T13:39:21.665Z,7.28
2023-02-18T13:42:10.162Z,7.27
2023-02-18T13:45:05.194Z,7.26
2023-02-18T13:47:41.761Z,7.19
2023-02-18T13:50:31.556Z,7.12
2023-02-18T13:53:23.837Z,7.05
2023-02-18T13:55:59.026Z,7.06
2023-02-18T13:58:36.284Z,7.09
2023-02-18T14:01:13.666Z,7.11
2023-02-18T14:03:56.561Z,7.14
2023-02-18T14:06:29.327Z,7.18
2023-02-18T14:09:36.278Z,7.25
2023-02-18T14:12:26.168Z,7.34
2023-02-18T14:14:58.572Z,7.40
2023-02-18T14:17:40.578Z,7.44
2023-02-18T14:20:47.820Z,7.46
2023-02-18T14:23:54.950Z,7.53
2023-02-18T14:26:30.747Z,7.61
2023-02-18T14:29:10.967Z,7.64
2023-02-18T14:31:54.629Z,7.69
2023-02-18T14:35:08.580Z,7.71
2023-02-18T14:38:01.691Z,7.69
2023-02-18T14:41:04.636Z,7.67
2023-02-18T14:44:17.074Z,7.64
2023-02-18T14:47:05.969Z,7.56
2023-02-18T14:49:43.520Z,7.48
2023-02-18T14:52:28.771Z,7.37
2023-02-18T14:55:00.939Z,7.29
2023-02-18T14:57:39.165Z,7.26
2023-02-18T15:00:19.926Z,7.23
2023-02-18T15:02:53.058Z,7.22
2023-02-18T15:05:25.872Z,7.16
2023-02-18T15:08:04.306Z,7.12
2023-02-18T15:10:40.526Z,7.06
2023-02-18T15:13:17.239Z,6.97
2023-02-18T15:15:51.295Z,6.81
2023-02-18T15:18:31.688Z,6.71
2023-02-18T15:21:04.719Z,6.62
2023-02-18T15:23:38.386Z,6.53
2023-02-18T15:26:13.935Z,6.43
2023-02-18T15:28:54.818Z,6.35
2023-02-18T15:31:29.422Z,6.33
2023-02-18T15:34:00.340Z,6.23
2023-02-18T15:36:33.357Z,6.16
2023-02-18T15:39:04.223Z,6.11
2023-02-18T15:41:35.230Z,6.08
2023-02-18T15:44:07.715Z,6.07
2023-02-18T15:46:38.843Z,6.08
2023-02-18T15:49:08.286Z,6.10
2023-02-18T15:51:42.154Z,6.06
2023-02-18T15:54:17.645Z,5.98
2023-02-18T15:56:53.453Z,5.96
2023-02-18T15:59:27.889Z,6.02
2023-02-18T16:02:11.961Z,6.02
2023-02-18T16:04:46.143Z,5.99
2023-02-18T16:07:25.034Z,5.95
2023-02-18T16:10:17.042Z,5.92
2023-02-18T16:12:50.261Z,5.81
2023-02-18T16:15:26.531Z,5.69
2023-02-18T16:17:57.803Z,5.62
2023-02-18T16:20:32.840Z,5.60
2023-02-18T16:23:10.897Z,5.59
2023-02-18T16:25:45.851Z,5.66
2023-02-18T16:28:22.984Z,5.70
2023-02-18T16:30:53.892Z,5.67
2023-02-18T16:33:24.738Z,5.65
2023-02-18T16:35:55.685Z,5.67
2023-02-18T16:38:26.980Z,5.64
2023-02-18T16:40:57.759Z,5.63
2023-02-18T16:43:29.267Z,5.67
2023-02-18T16:46:07.568Z,5.68
2023-02-18T16:48:41.034Z,5.70
2023-02-18T16:51:16.436Z,5.68
2023-02-18T16:53:47.539Z,5.65
2023-02-18T16:56:18.066Z,5.65
2023-02-18T16:58:49.048Z,5.63
2023-02-18T17:01:24.949Z,5.59
2023-02-18T17:03:56.900Z,5.55
2023-02-18T17:06:28.175Z,5.56
2023-02-18T17:08:59.260Z,5.53
2023-02-18T17:11:32.408Z,5.55
2023-02-18T17:14:03.365Z,5.47
2023-02-18T17:16:34.099Z,5.40
2023-02-18T17:19:04.816Z,5.35
2023-02-18T17:21:35.516Z,5.31
2023-02-18T17:24:06.919Z,5.28
2023-02-18T17:26:37.611Z,5.25
2023-02-18T17:29:08.599Z,5.28
2023-02-18T17:31:43.118Z,5.29
2023-02-18T17:34:20.967Z,5.31
2023-02-18T17:36:51.665Z,5.35
2023-02-18T17:39:22.863Z,5.34
2023-02-18T17:41:53.501Z,5.31
2023-02-18T17:44:24.890Z,5.26
2023-02-18T17:46:55.700Z,5.25
2023-02-18T17:49:26.422Z,5.20
2023-02-18T17:51:58.178Z,5.13
2023-02-18T17:54:29.071Z,5.07
2023-02-18T17:56:59.845Z,5.06
2023-02-18T17:59:30.495Z,5.05
2023-02-18T18:02:01.181Z,5.03
2023-02-18T18:04:32.891Z,5.00
2023-02-18T18:07:03.639Z,4.99
2023-02-18T18:09:34.388Z,5.02
2023-02-18T18:12:05.778Z,5.01
2023-02-18T18:14:36.538Z,5.00
2023-02-18T18:17:11.833Z,5.01
2023-02-18T18:19:42.545Z,5.01
2023-02-18T18:22:13.347Z,4.98
2023-02-18T18:24:44.210Z,4.91
2023-02-18T18:27:14.920Z,4.84
2023-02-18T18:29:45.760Z,4.79
2023-02-18T18:32:16.442Z,4.76
2023-02-18T18:34:48.983Z,4.72
2023-02-18T18:37:19.874Z,4.71
2023-02-18T18:39:50.504Z,4.69
2023-02-18T18:42:21.149Z,4.65
2023-02-18T18:44:51.784Z,4.62
2023-02-18T18:47:22.477Z,4.60
2023-02-18T18:49:53.086Z,4.58
2023-02-18T18:52:24.189Z,4.62
2023-02-18T18:54:54.802Z,4.69
2023-02-18T18:57:25.610Z,4.72
2023-02-18T18:59:56.273Z,4.69
2023-02-18T19:02:27.114Z,4.70
2023-02-18T19:04:57.817Z,4.73
2023-02-18T19:07:28.585Z,4.74
2023-02-18T19:09:59.236Z,4.79
2023-02-18T19:12:29.922Z,4.86
2023-02-18T19:15:00.561Z,4.89
2023-02-18T19:17:31.361Z,4.90
2023-02-18T19:20:02.143Z,4.89
2023-02-18T19:22:32.839Z,4.90
2023-02-18T19:25:03.523Z,4.91
2023-02-18T19:27:36.133Z,4.88
2023-02-18T19:30:11.799Z,4.86
2023-02-18T19:32:42.636Z,4.90
2023-02-18T19:35:13.292Z,4.93
2023-02-18T19:37:43.969Z,4.96
2023-02-18T19:40:16.609Z,4.99
2023-02-18T19:42:48.140Z,5.03
2023-02-18T19:45:19.947Z,5.07
2023-02-18T19:47:54.383Z,5.10
2023-02-18T19:50:26.528Z,5.15
2023-02-18T19:53:04.944Z,5.13
2023-02-18T19:55:35.967Z,5.14
2023-02-18T19:58:05.146Z,5.17
2023-02-18T20:00:36.063Z,5.16
2023-02-18T20:03:07.068Z,5.18
2023-02-18T20:05:39.553Z,5.18
2023-02-18T20:08:10.580Z,5.18
2023-02-18T20:10:41.479Z,5.19
2023-02-18T20:13:12.573Z,5.23
2023-02-18T20:15:41.697Z,5.26
2023-02-18T20:18:12.679Z,5.26
2023-02-18T20:20:48.624Z,5.26
2023-02-18T20:23:19.852Z,5.26
2023-02-18T20:25:50.649Z,5.24
2023-02-18T20:28:21.441Z,5.24
2023-02-18T20:31:02.789Z,5.23
2023-02-18T20:33:33.573Z,5.20
2023-02-18T20:36:03.969Z,5.17
2023-02-18T20:38:34.815Z,5.13
2023-02-18T20:41:11.248Z,5.11
2023-02-18T20:43:42.373Z,5.12
2023-02-18T20:46:15.230Z,5.15
2023-02-18T20:48:46.818Z,5.15
2023-02-18T20:51:19.069Z,5.13
2023-02-18T20:53:51.626Z,5.12
2023-02-18T20:56:22.748Z,5.11
2023-02-18T20:58:51.867Z,5.09
2023-02-18T21:01:22.744Z,5.08
2023-02-18T21:03:53.477Z,5.10
2023-02-18T21:06:25.276Z,5.14
2023-02-18T21:08:56.103Z,5.12
2023-02-18T21:11:27.782Z,5.18
2023-02-18T21:13:58.892Z,5.19
2023-02-18T21:16:28.344Z,5.20
2023-02-18T21:18:59.221Z,5.19
2023-02-18T21:21:30.097Z,5.17
2023-02-18T21:24:00.761Z,5.15
2023-02-18T21:26:31.416Z,5.12
2023-02-18T21:29:04.677Z,5.10
2023-02-18T21:31:37.343Z,5.12
2023-02-18T21:34:10.894Z,5.10
2023-02-18T21:36:42.479Z,5.07
2023-02-18T21:39:13.436Z,5.06
2023-02-18T21:41:44.069Z,5.06
2023-02-18T21:44:14.770Z,5.07
2023-02-18T21:46:45.450Z,5.07
2023-02-18T21:49:16.389Z,5.06
2023-02-18T21:51:48.705Z,5.06
2023-02-18T21:54:21.188Z,5.04
2023-02-18T21:56:52.181Z,5.03
2023-02-18T21:59:22.225Z,5.02
2023-02-18T22:01:52.929Z,4.99
2023-02-18T22:04:23.634Z,4.98
2023-02-18T22:06:54.352Z,5.00
2023-02-18T22:09:25.006Z,5.01
2023-02-18T22:11:55.932Z,4.98
2023-02-18T22:14:26.810Z,4.96
2023-02-18T22:16:58.122Z,4.97
2023-02-18T22:19:29.095Z,4.98
2023-02-18T22:21:59.721Z,5.00
2023-02-18T22:24:30.961Z,4.97
2023-02-18T22:27:02.188Z,4.95
2023-02-18T22:29:32.965Z,4.96
2023-02-18T22:32:03.998Z,4.95
2023-02-18T22:34:34.786Z,4.96
2023-02-18T22:37:05.794Z,4.96
2023-02-18T22:39:36.483Z,4.99
2023-02-18T22:42:07.343Z,4.98
2023-02-18T22:44:38.194Z,4.99
2023-02-18T22:47:08.838Z,4.98
2023-02-18T22:49:39.604Z,4.99
2023-02-18T22:52:10.639Z,5.01
2023-02-18T22:54:41.330Z,5.03
2023-02-18T22:57:11.993Z,5.03
2023-02-18T22:59:42.672Z,5.01
2023-02-18T23:02:13.269Z,5.00
2023-02-18T23:04:44.209Z,5.00
2023-02-18T23:07:13.584Z,5.00
2023-02-18T23:09:44.280Z,5.00
2023-02-18T23:12:15.243Z,5.01
2023-02-18T23:14:45.890Z,5.00
2023-02-18T23:17:16.632Z,5.00
2023-02-18T23:19:49.155Z,5.01
2023-02-18T23:22:26.294Z,5.02
2023-02-18T23:24:57.297Z,4.98
2023-02-18T23:27:26.463Z,4.99
2023-02-18T23:29:57.116Z,4.98
2023-02-18T23:32:27.881Z,5.00
2023-02-18T23:34:58.629Z,5.06
2023-02-18T23:37:29.281Z,5.09
2023-02-18T23:39:59.941Z,5.10
2023-02-18T23:42:30.682Z,5.10
2023-02-18T23:45:01.383Z,5.12
2023-02-18T23:47:32.006Z,5.10
2023-02-18T23:50:02.703Z,5.09
2023-02-18T23:52:33.466Z,5.06
2023-02-18T23:55:06.122Z,5.04
2023-02-18T23:57:36.758Z,5.05
